sensor_id;sensor_type;location;lat;lon;timestamp;P1;durP1;ratioP1;P2;durP2;ratioP2
6566;SDS011;3317;43.994;22.878;2022-12-20T00:01:06;40.33;;;19.83;;
6566;SDS011;3317;43.994;22.878;2022-12-20T00:03:35;45.37;;;20.10;;
6566;SDS011;3317;43.994;22.878;2022-12-20T00:06:02;42.03;;;19.43;;
6566;SDS011;3317;43.994;22.878;2022-12-20T00:08:29;47.80;;;21.60;;
6566;SDS011;3317;43.994;22.878;2022-12-20T00:10:58;38.53;;;18.90;;
6566;SDS011;3317;43.994;22.878;2022-12-20T00:13:27;40.97;;;20.20;;
6566;SDS011;3317;43.994;22.878;2022-12-20T00:16:02;39.27;;;19.00;;
6566;SDS011;3317;43.994;22.878;2022-12-20T00:18:30;35.13;;;19.50;;
6566;SDS011;3317;43.994;22.878;2022-12-20T00:20:58;40.60;;;19.13;;
6566;SDS011;3317;43.994;22.878;2022-12-20T00:23:26;40.33;;;19.30;;
6566;SDS011;3317;43.994;22.878;2022-12-20T00:25:58;39.13;;;18.90;;
6566;SDS011;3317;43.994;22.878;2022-12-20T00:28:26;41.63;;;20.00;;
6566;SDS011;3317;43.994;22.878;2022-12-20T00:30:53;40.27;;;18.17;;
6566;SDS011;3317;43.994;22.878;2022-12-20T00:33:20;40.90;;;19.90;;
6566;SDS011;3317;43.994;22.878;2022-12-20T00:35:47;42.27;;;20.33;;
6566;SDS011;3317;43.994;22.878;2022-12-20T00:38:15;41.20;;;19.33;;
6566;SDS011;3317;43.994;22.878;2022-12-20T00:40:42;39.23;;;18.63;;
6566;SDS011;3317;43.994;22.878;2022-12-20T00:43:09;39.03;;;20.60;;
6566;SDS011;3317;43.994;22.878;2022-12-20T00:45:37;42.63;;;20.43;;
6566;SDS011;3317;43.994;22.878;2022-12-20T00:48:04;42.30;;;19.03;;
6566;SDS011;3317;43.994;22.878;2022-12-20T00:50:31;36.27;;;18.40;;
6566;SDS011;3317;43.994;22.878;2022-12-20T00:52:58;38.57;;;18.30;;
6566;SDS011;3317;43.994;22.878;2022-12-20T00:55:26;37.30;;;18.73;;
6566;SDS011;3317;43.994;22.878;2022-12-20T00:57:53;42.60;;;19.03;;
6566;SDS011;3317;43.994;22.878;2022-12-20T01:00:20;39.87;;;19.00;;
6566;SDS011;3317;43.994;22.878;2022-12-20T01:02:47;39.57;;;19.80;;
6566;SDS011;3317;43.994;22.878;2022-12-20T01:05:14;40.27;;;18.70;;
6566;SDS011;3317;43.994;22.878;2022-12-20T01:07:41;41.47;;;20.77;;
6566;SDS011;3317;43.994;22.878;2022-12-20T01:10:09;38.77;;;19.50;;
6566;SDS011;3317;43.994;22.878;2022-12-20T01:12:37;36.80;;;18.47;;
6566;SDS011;3317;43.994;22.878;2022-12-20T01:15:05;39.63;;;18.60;;
6566;SDS011;3317;43.994;22.878;2022-12-20T01:17:33;39.13;;;18.27;;
6566;SDS011;3317;43.994;22.878;2022-12-20T01:20:00;35.93;;;17.30;;
6566;SDS011;3317;43.994;22.878;2022-12-20T01:22:27;39.03;;;19.40;;
6566;SDS011;3317;43.994;22.878;2022-12-20T01:24:54;43.63;;;19.53;;
6566;SDS011;3317;43.994;22.878;2022-12-20T01:27:21;43.53;;;20.17;;
6566;SDS011;3317;43.994;22.878;2022-12-20T01:29:50;37.90;;;18.87;;
6566;SDS011;3317;43.994;22.878;2022-12-20T01:32:17;40.83;;;18.80;;
6566;SDS011;3317;43.994;22.878;2022-12-20T01:34:44;44.67;;;20.53;;
6566;SDS011;3317;43.994;22.878;2022-12-20T01:37:11;38.70;;;18.90;;
6566;SDS011;3317;43.994;22.878;2022-12-20T01:39:38;41.80;;;20.63;;
6566;SDS011;3317;43.994;22.878;2022-12-20T01:42:05;41.50;;;20.17;;
6566;SDS011;3317;43.994;22.878;2022-12-20T01:47:23;39.27;;;19.40;;
6566;SDS011;3317;43.994;22.878;2022-12-20T01:49:52;38.60;;;19.47;;
6566;SDS011;3317;43.994;22.878;2022-12-20T01:52:23;39.17;;;19.60;;
6566;SDS011;3317;43.994;22.878;2022-12-20T01:54:55;43.27;;;19.67;;
6566;SDS011;3317;43.994;22.878;2022-12-20T01:57:29;39.60;;;19.47;;
6566;SDS011;3317;43.994;22.878;2022-12-20T02:00:02;37.70;;;19.50;;
6566;SDS011;3317;43.994;22.878;2022-12-20T02:02:30;38.53;;;19.30;;
6566;SDS011;3317;43.994;22.878;2022-12-20T02:04:58;43.30;;;19.73;;
6566;SDS011;3317;43.994;22.878;2022-12-20T02:07:25;37.23;;;18.20;;
6566;SDS011;3317;43.994;22.878;2022-12-20T02:09:56;38.77;;;18.60;;
6566;SDS011;3317;43.994;22.878;2022-12-20T02:12:27;38.20;;;18.23;;
6566;SDS011;3317;43.994;22.878;2022-12-20T02:15:06;36.97;;;18.20;;
6566;SDS011;3317;43.994;22.878;2022-12-20T02:17:48;35.03;;;16.70;;
6566;SDS011;3317;43.994;22.878;2022-12-20T02:27:06;40.67;;;17.53;;
6566;SDS011;3317;43.994;22.878;2022-12-20T02:30:00;31.13;;;16.80;;
6566;SDS011;3317;43.994;22.878;2022-12-20T02:32:31;39.13;;;18.07;;
6566;SDS011;3317;43.994;22.878;2022-12-20T02:35:04;34.27;;;17.37;;
6566;SDS011;3317;43.994;22.878;2022-12-20T02:37:32;35.57;;;17.33;;
6566;SDS011;3317;43.994;22.878;2022-12-20T02:39:59;39.93;;;17.47;;
6566;SDS011;3317;43.994;22.878;2022-12-20T02:42:28;33.23;;;16.60;;
6566;SDS011;3317;43.994;22.878;2022-12-20T02:44:56;38.50;;;18.07;;
6566;SDS011;3317;43.994;22.878;2022-12-20T02:47:41;37.83;;;17.17;;
6566;SDS011;3317;43.994;22.878;2022-12-20T02:50:16;37.87;;;17.17;;
6566;SDS011;3317;43.994;22.878;2022-12-20T02:52:52;34.10;;;17.80;;
6566;SDS011;3317;43.994;22.878;2022-12-20T02:55:20;32.97;;;17.03;;
6566;SDS011;3317;43.994;22.878;2022-12-20T02:57:57;36.37;;;17.20;;
6566;SDS011;3317;43.994;22.878;2022-12-20T03:00:31;36.80;;;17.03;;
6566;SDS011;3317;43.994;22.878;2022-12-20T03:03:03;36.70;;;17.87;;
6566;SDS011;3317;43.994;22.878;2022-12-20T03:05:50;34.13;;;16.57;;
6566;SDS011;3317;43.994;22.878;2022-12-20T03:08:18;34.90;;;17.00;;
6566;SDS011;3317;43.994;22.878;2022-12-20T03:10:46;36.83;;;16.63;;
6566;SDS011;3317;43.994;22.878;2022-12-20T03:13:14;34.17;;;17.47;;
6566;SDS011;3317;43.994;22.878;2022-12-20T03:15:43;36.03;;;17.67;;
6566;SDS011;3317;43.994;22.878;2022-12-20T03:18:10;38.37;;;17.10;;
6566;SDS011;3317;43.994;22.878;2022-12-20T03:20:37;33.03;;;16.20;;
6566;SDS011;3317;43.994;22.878;2022-12-20T03:23:04;38.60;;;16.90;;
6566;SDS011;3317;43.994;22.878;2022-12-20T03:25:32;32.83;;;16.17;;
6566;SDS011;3317;43.994;22.878;2022-12-20T03:27:58;37.57;;;18.17;;
6566;SDS011;3317;43.994;22.878;2022-12-20T03:30:25;33.10;;;16.63;;
6566;SDS011;3317;43.994;22.878;2022-12-20T03:32:54;35.20;;;16.77;;
6566;SDS011;3317;43.994;22.878;2022-12-20T03:35:21;32.20;;;16.97;;
6566;SDS011;3317;43.994;22.878;2022-12-20T03:37:48;31.40;;;15.03;;
6566;SDS011;3317;43.994;22.878;2022-12-20T03:40:14;29.20;;;15.10;;
6566;SDS011;3317;43.994;22.878;2022-12-20T03:42:42;31.77;;;15.37;;
6566;SDS011;3317;43.994;22.878;2022-12-20T03:45:09;32.20;;;16.40;;
6566;SDS011;3317;43.994;22.878;2022-12-20T03:47:36;31.70;;;15.80;;
6566;SDS011;3317;43.994;22.878;2022-12-20T03:50:05;32.10;;;15.60;;
6566;SDS011;3317;43.994;22.878;2022-12-20T03:52:33;33.80;;;16.53;;
6566;SDS011;3317;43.994;22.878;2022-12-20T03:55:00;37.53;;;16.33;;
6566;SDS011;3317;43.994;22.878;2022-12-20T03:57:27;36.53;;;16.67;;
6566;SDS011;3317;43.994;22.878;2022-12-20T03:59:54;34.97;;;17.13;;
6566;SDS011;3317;43.994;22.878;2022-12-20T04:02:21;32.33;;;16.00;;
6566;SDS011;3317;43.994;22.878;2022-12-20T04:04:48;31.20;;;15.53;;
6566;SDS011;3317;43.994;22.878;2022-12-20T04:07:17;34.53;;;15.73;;
6566;SDS011;3317;43.994;22.878;2022-12-20T04:09:44;33.27;;;15.63;;
6566;SDS011;3317;43.994;22.878;2022-12-20T04:12:11;33.20;;;16.37;;
6566;SDS011;3317;43.994;22.878;2022-12-20T04:14:38;30.07;;;15.13;;
6566;SDS011;3317;43.994;22.878;2022-12-20T04:17:05;30.37;;;15.70;;
6566;SDS011;3317;43.994;22.878;2022-12-20T04:19:32;31.60;;;15.70;;
6566;SDS011;3317;43.994;22.878;2022-12-20T04:21:59;30.00;;;15.10;;
6566;SDS011;3317;43.994;22.878;2022-12-20T04:24:28;29.33;;;15.10;;
6566;SDS011;3317;43.994;22.878;2022-12-20T04:26:54;33.57;;;15.77;;
6566;SDS011;3317;43.994;22.878;2022-12-20T04:29:21;33.20;;;15.70;;
6566;SDS011;3317;43.994;22.878;2022-12-20T04:31:48;31.37;;;16.00;;
6566;SDS011;3317;43.994;22.878;2022-12-20T04:34:15;34.73;;;15.90;;
6566;SDS011;3317;43.994;22.878;2022-12-20T04:36:42;31.27;;;15.17;;
6566;SDS011;3317;43.994;22.878;2022-12-20T04:39:09;30.33;;;14.10;;
6566;SDS011;3317;43.994;22.878;2022-12-20T04:41:37;29.67;;;14.77;;
6566;SDS011;3317;43.994;22.878;2022-12-20T04:44:04;32.20;;;15.60;;
6566;SDS011;3317;43.994;22.878;2022-12-20T04:46:31;29.80;;;14.87;;
6566;SDS011;3317;43.994;22.878;2022-12-20T04:48:58;33.50;;;14.60;;
6566;SDS011;3317;43.994;22.878;2022-12-20T04:51:25;29.87;;;15.77;;
6566;SDS011;3317;43.994;22.878;2022-12-20T04:53:53;28.33;;;15.30;;
6566;SDS011;3317;43.994;22.878;2022-12-20T04:56:20;28.60;;;15.20;;
6566;SDS011;3317;43.994;22.878;2022-12-20T04:58:50;28.73;;;15.20;;
6566;SDS011;3317;43.994;22.878;2022-12-20T05:01:18;26.13;;;14.37;;
6566;SDS011;3317;43.994;22.878;2022-12-20T05:03:46;30.90;;;15.77;;
6566;SDS011;3317;43.994;22.878;2022-12-20T05:06:14;28.97;;;14.50;;
6566;SDS011;3317;43.994;22.878;2022-12-20T05:08:42;33.10;;;16.90;;
6566;SDS011;3317;43.994;22.878;2022-12-20T05:11:09;30.30;;;15.13;;
6566;SDS011;3317;43.994;22.878;2022-12-20T05:13:36;27.93;;;14.57;;
6566;SDS011;3317;43.994;22.878;2022-12-20T05:16:04;30.07;;;14.70;;
6566;SDS011;3317;43.994;22.878;2022-12-20T05:18:32;26.90;;;13.73;;
6566;SDS011;3317;43.994;22.878;2022-12-20T05:20:59;29.47;;;15.00;;
6566;SDS011;3317;43.994;22.878;2022-12-20T05:23:45;26.87;;;13.60;;
6566;SDS011;3317;43.994;22.878;2022-12-20T05:26:31;28.23;;;13.40;;
6566;SDS011;3317;43.994;22.878;2022-12-20T05:29:00;29.73;;;14.57;;
6566;SDS011;3317;43.994;22.878;2022-12-20T05:31:28;32.73;;;15.07;;
6566;SDS011;3317;43.994;22.878;2022-12-20T05:33:56;27.67;;;14.47;;
6566;SDS011;3317;43.994;22.878;2022-12-20T05:36:23;31.33;;;15.10;;
6566;SDS011;3317;43.994;22.878;2022-12-20T05:38:50;29.90;;;15.07;;
6566;SDS011;3317;43.994;22.878;2022-12-20T05:41:17;28.40;;;13.77;;
6566;SDS011;3317;43.994;22.878;2022-12-20T05:43:44;28.00;;;14.80;;
6566;SDS011;3317;43.994;22.878;2022-12-20T05:46:11;31.20;;;15.17;;
6566;SDS011;3317;43.994;22.878;2022-12-20T05:48:39;28.90;;;13.93;;
6566;SDS011;3317;43.994;22.878;2022-12-20T05:51:06;32.97;;;16.50;;
6566;SDS011;3317;43.994;22.878;2022-12-20T05:53:33;28.77;;;14.83;;
6566;SDS011;3317;43.994;22.878;2022-12-20T05:56:00;33.87;;;15.20;;
6566;SDS011;3317;43.994;22.878;2022-12-20T05:58:27;32.67;;;15.17;;
6566;SDS011;3317;43.994;22.878;2022-12-20T06:00:54;31.70;;;15.50;;
6566;SDS011;3317;43.994;22.878;2022-12-20T06:03:21;35.23;;;15.80;;
6566;SDS011;3317;43.994;22.878;2022-12-20T06:05:50;34.73;;;16.77;;
6566;SDS011;3317;43.994;22.878;2022-12-20T06:08:17;34.83;;;15.67;;
6566;SDS011;3317;43.994;22.878;2022-12-20T06:10:46;31.10;;;15.97;;
6566;SDS011;3317;43.994;22.878;2022-12-20T06:13:13;35.97;;;15.97;;
6566;SDS011;3317;43.994;22.878;2022-12-20T06:15:41;33.33;;;15.20;;
6566;SDS011;3317;43.994;22.878;2022-12-20T06:18:08;33.90;;;15.70;;
6566;SDS011;3317;43.994;22.878;2022-12-20T06:20:36;34.67;;;15.87;;
6566;SDS011;3317;43.994;22.878;2022-12-20T06:23:04;32.23;;;15.77;;
6566;SDS011;3317;43.994;22.878;2022-12-20T06:25:33;34.43;;;16.67;;
6566;SDS011;3317;43.994;22.878;2022-12-20T06:28:02;34.30;;;15.50;;
6566;SDS011;3317;43.994;22.878;2022-12-20T06:30:29;37.90;;;15.17;;
6566;SDS011;3317;43.994;22.878;2022-12-20T06:32:56;29.07;;;15.27;;
6566;SDS011;3317;43.994;22.878;2022-12-20T06:35:23;32.73;;;16.33;;
6566;SDS011;3317;43.994;22.878;2022-12-20T06:37:50;33.20;;;14.50;;
6566;SDS011;3317;43.994;22.878;2022-12-20T06:40:18;30.97;;;15.47;;
6566;SDS011;3317;43.994;22.878;2022-12-20T06:42:45;34.17;;;16.27;;
6566;SDS011;3317;43.994;22.878;2022-12-20T06:45:13;31.67;;;15.20;;
6566;SDS011;3317;43.994;22.878;2022-12-20T06:47:40;28.43;;;15.33;;
6566;SDS011;3317;43.994;22.878;2022-12-20T06:50:07;29.90;;;15.00;;
6566;SDS011;3317;43.994;22.878;2022-12-20T06:52:34;27.23;;;14.97;;
6566;SDS011;3317;43.994;22.878;2022-12-20T06:55:01;28.50;;;15.00;;
6566;SDS011;3317;43.994;22.878;2022-12-20T06:57:29;30.37;;;15.70;;
6566;SDS011;3317;43.994;22.878;2022-12-20T06:59:57;27.80;;;14.70;;
6566;SDS011;3317;43.994;22.878;2022-12-20T07:02:24;30.97;;;16.00;;
6566;SDS011;3317;43.994;22.878;2022-12-20T07:04:51;35.10;;;15.90;;
6566;SDS011;3317;43.994;22.878;2022-12-20T07:07:17;32.67;;;15.80;;
6566;SDS011;3317;43.994;22.878;2022-12-20T07:09:44;27.13;;;14.87;;
6566;SDS011;3317;43.994;22.878;2022-12-20T07:12:12;35.00;;;17.57;;
6566;SDS011;3317;43.994;22.878;2022-12-20T07:14:42;30.33;;;15.33;;
6566;SDS011;3317;43.994;22.878;2022-12-20T07:17:09;31.67;;;15.30;;
6566;SDS011;3317;43.994;22.878;2022-12-20T07:19:36;31.67;;;15.33;;
6566;SDS011;3317;43.994;22.878;2022-12-20T07:22:04;30.77;;;15.20;;
6566;SDS011;3317;43.994;22.878;2022-12-20T07:24:31;33.73;;;16.40;;
6566;SDS011;3317;43.994;22.878;2022-12-20T07:26:58;35.30;;;16.57;;
6566;SDS011;3317;43.994;22.878;2022-12-20T07:29:25;31.73;;;15.67;;
6566;SDS011;3317;43.994;22.878;2022-12-20T07:31:54;32.10;;;14.70;;
6566;SDS011;3317;43.994;22.878;2022-12-20T07:34:22;32.37;;;15.73;;
6566;SDS011;3317;43.994;22.878;2022-12-20T07:36:49;31.00;;;15.07;;
6566;SDS011;3317;43.994;22.878;2022-12-20T07:39:16;29.60;;;15.10;;
6566;SDS011;3317;43.994;22.878;2022-12-20T07:41:43;31.80;;;15.73;;
6566;SDS011;3317;43.994;22.878;2022-12-20T07:44:10;32.63;;;16.50;;
6566;SDS011;3317;43.994;22.878;2022-12-20T07:46:37;33.60;;;16.73;;
6566;SDS011;3317;43.994;22.878;2022-12-20T07:49:06;25.07;;;13.90;;
6566;SDS011;3317;43.994;22.878;2022-12-20T07:51:33;29.40;;;15.40;;
6566;SDS011;3317;43.994;22.878;2022-12-20T07:54:05;28.50;;;14.60;;
6566;SDS011;3317;43.994;22.878;2022-12-20T07:56:37;33.67;;;16.83;;
6566;SDS011;3317;43.994;22.878;2022-12-20T07:59:07;30.20;;;15.30;;
6566;SDS011;3317;43.994;22.878;2022-12-20T08:01:36;32.83;;;15.57;;
6566;SDS011;3317;43.994;22.878;2022-12-20T08:04:06;29.27;;;14.73;;
6566;SDS011;3317;43.994;22.878;2022-12-20T08:06:38;30.60;;;15.43;;
6566;SDS011;3317;43.994;22.878;2022-12-20T08:09:06;28.43;;;15.83;;
6566;SDS011;3317;43.994;22.878;2022-12-20T08:11:36;32.73;;;16.30;;
6566;SDS011;3317;43.994;22.878;2022-12-20T08:14:06;37.30;;;16.23;;
6566;SDS011;3317;43.994;22.878;2022-12-20T08:16:33;30.90;;;14.73;;
6566;SDS011;3317;43.994;22.878;2022-12-20T08:19:00;28.00;;;14.83;;
6566;SDS011;3317;43.994;22.878;2022-12-20T08:21:29;28.43;;;15.10;;
6566;SDS011;3317;43.994;22.878;2022-12-20T08:23:55;32.43;;;15.40;;
6566;SDS011;3317;43.994;22.878;2022-12-20T08:26:22;33.37;;;18.20;;
6566;SDS011;3317;43.994;22.878;2022-12-20T08:28:49;34.03;;;17.13;;
6566;SDS011;3317;43.994;22.878;2022-12-20T08:31:16;28.10;;;14.67;;
6566;SDS011;3317;43.994;22.878;2022-12-20T08:33:43;28.00;;;14.97;;
6566;SDS011;3317;43.994;22.878;2022-12-20T08:36:10;28.27;;;14.90;;
6566;SDS011;3317;43.994;22.878;2022-12-20T08:38:40;31.07;;;15.40;;
6566;SDS011;3317;43.994;22.878;2022-12-20T08:41:07;27.40;;;14.77;;
6566;SDS011;3317;43.994;22.878;2022-12-20T08:43:35;29.93;;;14.50;;
6566;SDS011;3317;43.994;22.878;2022-12-20T08:46:03;23.73;;;14.23;;
6566;SDS011;3317;43.994;22.878;2022-12-20T08:48:31;28.40;;;15.70;;
6566;SDS011;3317;43.994;22.878;2022-12-20T08:50:59;26.97;;;13.97;;
6566;SDS011;3317;43.994;22.878;2022-12-20T08:53:27;30.33;;;14.53;;
6566;SDS011;3317;43.994;22.878;2022-12-20T08:56:03;33.50;;;14.67;;
6566;SDS011;3317;43.994;22.878;2022-12-20T08:58:32;33.47;;;16.70;;
6566;SDS011;3317;43.994;22.878;2022-12-20T09:00:59;31.50;;;17.10;;
6566;SDS011;3317;43.994;22.878;2022-12-20T09:03:28;32.80;;;16.00;;
6566;SDS011;3317;43.994;22.878;2022-12-20T09:05:56;34.67;;;16.87;;
6566;SDS011;3317;43.994;22.878;2022-12-20T09:08:24;31.20;;;15.57;;
6566;SDS011;3317;43.994;22.878;2022-12-20T09:10:52;35.03;;;16.40;;
6566;SDS011;3317;43.994;22.878;2022-12-20T09:13:20;35.87;;;17.10;;
6566;SDS011;3317;43.994;22.878;2022-12-20T09:15:47;25.57;;;13.50;;
6566;SDS011;3317;43.994;22.878;2022-12-20T09:18:14;31.27;;;17.20;;
6566;SDS011;3317;43.994;22.878;2022-12-20T09:20:42;31.23;;;17.07;;
6566;SDS011;3317;43.994;22.878;2022-12-20T09:23:10;32.63;;;15.57;;
6566;SDS011;3317;43.994;22.878;2022-12-20T09:25:37;31.20;;;16.67;;
6566;SDS011;3317;43.994;22.878;2022-12-20T09:28:04;26.03;;;13.87;;
6566;SDS011;3317;43.994;22.878;2022-12-20T09:30:33;27.67;;;14.70;;
6566;SDS011;3317;43.994;22.878;2022-12-20T09:33:00;33.53;;;15.80;;
6566;SDS011;3317;43.994;22.878;2022-12-20T09:35:27;31.80;;;16.43;;
6566;SDS011;3317;43.994;22.878;2022-12-20T09:37:54;27.23;;;14.10;;
6566;SDS011;3317;43.994;22.878;2022-12-20T09:40:22;32.17;;;16.07;;
6566;SDS011;3317;43.994;22.878;2022-12-20T09:42:52;27.73;;;15.00;;
6566;SDS011;3317;43.994;22.878;2022-12-20T09:45:22;26.83;;;14.13;;
6566;SDS011;3317;43.994;22.878;2022-12-20T09:47:53;28.57;;;14.73;;
6566;SDS011;3317;43.994;22.878;2022-12-20T09:50:25;32.43;;;14.73;;
6566;SDS011;3317;43.994;22.878;2022-12-20T09:53:03;24.97;;;13.33;;
6566;SDS011;3317;43.994;22.878;2022-12-20T09:55:42;28.37;;;14.10;;
6566;SDS011;3317;43.994;22.878;2022-12-20T09:58:17;29.07;;;13.83;;
6566;SDS011;3317;43.994;22.878;2022-12-20T10:00:52;29.10;;;14.23;;
6566;SDS011;3317;43.994;22.878;2022-12-20T10:03:22;22.87;;;12.40;;
6566;SDS011;3317;43.994;22.878;2022-12-20T10:05:51;29.80;;;13.20;;
6566;SDS011;3317;43.994;22.878;2022-12-20T10:08:26;27.57;;;14.90;;
6566;SDS011;3317;43.994;22.878;2022-12-20T10:11:08;28.60;;;15.23;;
6566;SDS011;3317;43.994;22.878;2022-12-20T10:13:52;34.33;;;16.33;;
6566;SDS011;3317;43.994;22.878;2022-12-20T10:16:31;29.50;;;15.43;;
6566;SDS011;3317;43.994;22.878;2022-12-20T10:19:17;32.60;;;16.30;;
6566;SDS011;3317;43.994;22.878;2022-12-20T10:21:57;28.17;;;15.37;;
6566;SDS011;3317;43.994;22.878;2022-12-20T10:24:34;29.30;;;16.33;;
6566;SDS011;3317;43.994;22.878;2022-12-20T10:27:06;30.97;;;15.37;;
6566;SDS011;3317;43.994;22.878;2022-12-20T10:29:37;31.20;;;14.60;;
6566;SDS011;3317;43.994;22.878;2022-12-20T10:32:09;28.90;;;15.67;;
6566;SDS011;3317;43.994;22.878;2022-12-20T10:34:41;29.80;;;15.50;;
6566;SDS011;3317;43.994;22.878;2022-12-20T10:37:17;46.40;;;22.57;;
6566;SDS011;3317;43.994;22.878;2022-12-20T10:39:46;33.43;;;15.50;;
6566;SDS011;3317;43.994;22.878;2022-12-20T10:42:29;26.80;;;14.70;;
6566;SDS011;3317;43.994;22.878;2022-12-20T10:45:03;25.00;;;14.40;;
6566;SDS011;3317;43.994;22.878;2022-12-20T10:47:50;29.73;;;14.23;;
6566;SDS011;3317;43.994;22.878;2022-12-20T10:50:25;25.87;;;13.70;;
6566;SDS011;3317;43.994;22.878;2022-12-20T10:53:02;27.90;;;15.03;;
6566;SDS011;3317;43.994;22.878;2022-12-20T10:56:04;26.63;;;14.20;;
6566;SDS011;3317;43.994;22.878;2022-12-20T10:58:39;30.77;;;16.03;;
6566;SDS011;3317;43.994;22.878;2022-12-20T11:01:10;29.63;;;14.50;;
6566;SDS011;3317;43.994;22.878;2022-12-20T11:03:50;31.60;;;16.10;;
6566;SDS011;3317;43.994;22.878;2022-12-20T11:06:24;27.40;;;14.37;;
6566;SDS011;3317;43.994;22.878;2022-12-20T11:08:53;29.93;;;14.50;;
6566;SDS011;3317;43.994;22.878;2022-12-20T11:11:37;31.97;;;18.37;;
6566;SDS011;3317;43.994;22.878;2022-12-20T11:14:12;29.00;;;14.57;;
6566;SDS011;3317;43.994;22.878;2022-12-20T11:16:40;24.43;;;14.60;;
6566;SDS011;3317;43.994;22.878;2022-12-20T11:21:58;24.10;;;13.43;;
6566;SDS011;3317;43.994;22.878;2022-12-20T11:24:34;27.63;;;13.53;;
6566;SDS011;3317;43.994;22.878;2022-12-20T11:27:12;27.10;;;14.93;;
6566;SDS011;3317;43.994;22.878;2022-12-20T11:29:51;34.50;;;17.50;;
6566;SDS011;3317;43.994;22.878;2022-12-20T11:32:33;27.77;;;13.73;;
6566;SDS011;3317;43.994;22.878;2022-12-20T11:35:10;30.13;;;14.53;;
6566;SDS011;3317;43.994;22.878;2022-12-20T11:37:42;26.33;;;14.50;;
6566;SDS011;3317;43.994;22.878;2022-12-20T11:40:16;29.93;;;13.40;;
6566;SDS011;3317;43.994;22.878;2022-12-20T11:43:03;24.83;;;13.23;;
6566;SDS011;3317;43.994;22.878;2022-12-20T11:45:46;27.13;;;13.30;;
6566;SDS011;3317;43.994;22.878;2022-12-20T11:48:31;31.77;;;13.90;;
6566;SDS011;3317;43.994;22.878;2022-12-20T11:51:09;27.73;;;13.90;;
6566;SDS011;3317;43.994;22.878;2022-12-20T11:53:49;31.90;;;14.50;;
6566;SDS011;3317;43.994;22.878;2022-12-20T11:56:23;28.23;;;13.93;;
6566;SDS011;3317;43.994;22.878;2022-12-20T11:58:56;33.67;;;15.40;;
6566;SDS011;3317;43.994;22.878;2022-12-20T12:01:30;33.67;;;13.47;;
6566;SDS011;3317;43.994;22.878;2022-12-20T12:04:04;24.20;;;12.87;;
6566;SDS011;3317;43.994;22.878;2022-12-20T12:06:38;25.40;;;13.07;;
6566;SDS011;3317;43.994;22.878;2022-12-20T12:09:16;23.43;;;11.60;;
6566;SDS011;3317;43.994;22.878;2022-12-20T12:11:50;26.20;;;12.57;;
6566;SDS011;3317;43.994;22.878;2022-12-20T12:14:27;28.60;;;13.43;;
6566;SDS011;3317;43.994;22.878;2022-12-20T12:17:06;24.00;;;11.73;;
6566;SDS011;3317;43.994;22.878;2022-12-20T12:19:39;22.70;;;12.60;;
6566;SDS011;3317;43.994;22.878;2022-12-20T12:22:10;25.03;;;13.23;;
6566;SDS011;3317;43.994;22.878;2022-12-20T12:24:45;23.77;;;13.37;;
6566;SDS011;3317;43.994;22.878;2022-12-20T12:27:20;26.23;;;12.87;;
6566;SDS011;3317;43.994;22.878;2022-12-20T12:29:49;25.40;;;13.10;;
6566;SDS011;3317;43.994;22.878;2022-12-20T12:32:19;27.27;;;14.00;;
6566;SDS011;3317;43.994;22.878;2022-12-20T12:34:56;20.40;;;11.97;;
6566;SDS011;3317;43.994;22.878;2022-12-20T12:37:46;24.37;;;12.10;;
6566;SDS011;3317;43.994;22.878;2022-12-20T12:40:28;29.13;;;12.93;;
6566;SDS011;3317;43.994;22.878;2022-12-20T12:46:09;23.57;;;12.13;;
6566;SDS011;3317;43.994;22.878;2022-12-20T12:48:39;24.70;;;11.57;;
6566;SDS011;3317;43.994;22.878;2022-12-20T12:51:09;26.67;;;13.40;;
6566;SDS011;3317;43.994;22.878;2022-12-20T12:53:41;22.53;;;13.13;;
6566;SDS011;3317;43.994;22.878;2022-12-20T12:59:21;22.30;;;12.50;;
6566;SDS011;3317;43.994;22.878;2022-12-20T13:04:53;28.70;;;12.57;;
6566;SDS011;3317;43.994;22.878;2022-12-20T13:07:25;26.67;;;14.17;;
6566;SDS011;3317;43.994;22.878;2022-12-20T13:09:56;27.60;;;13.63;;
6566;SDS011;3317;43.994;22.878;2022-12-20T13:21:38;27.33;;;14.70;;
6566;SDS011;3317;43.994;22.878;2022-12-20T13:27:27;29.60;;;14.20;;
6566;SDS011;3317;43.994;22.878;2022-12-20T13:35:55;25.60;;;13.60;;
6566;SDS011;3317;43.994;22.878;2022-12-20T13:38:35;22.47;;;11.77;;
6566;SDS011;3317;43.994;22.878;2022-12-20T13:41:22;24.07;;;12.90;;
6566;SDS011;3317;43.994;22.878;2022-12-20T13:43:56;24.43;;;13.30;;
6566;SDS011;3317;43.994;22.878;2022-12-20T13:46:29;25.60;;;13.67;;
6566;SDS011;3317;43.994;22.878;2022-12-20T13:49:06;24.20;;;13.00;;
6566;SDS011;3317;43.994;22.878;2022-12-20T13:51:36;22.03;;;12.33;;
6566;SDS011;3317;43.994;22.878;2022-12-20T13:54:04;23.03;;;11.73;;
6566;SDS011;3317;43.994;22.878;2022-12-20T13:56:34;23.10;;;12.10;;
6566;SDS011;3317;43.994;22.878;2022-12-20T13:59:12;26.00;;;13.00;;
6566;SDS011;3317;43.994;22.878;2022-12-20T14:01:47;25.90;;;14.03;;
6566;SDS011;3317;43.994;22.878;2022-12-20T14:04:16;22.20;;;10.23;;
6566;SDS011;3317;43.994;22.878;2022-12-20T14:06:43;31.10;;;14.10;;
6566;SDS011;3317;43.994;22.878;2022-12-20T14:09:30;26.60;;;14.20;;
6566;SDS011;3317;43.994;22.878;2022-12-20T14:12:02;31.80;;;23.70;;
6566;SDS011;3317;43.994;22.878;2022-12-20T14:14:35;25.27;;;13.80;;
6566;SDS011;3317;43.994;22.878;2022-12-20T14:17:18;23.27;;;13.00;;
6566;SDS011;3317;43.994;22.878;2022-12-20T14:22:37;24.40;;;12.23;;
6566;SDS011;3317;43.994;22.878;2022-12-20T14:25:08;21.40;;;11.50;;
6566;SDS011;3317;43.994;22.878;2022-12-20T14:27:40;21.30;;;11.10;;
6566;SDS011;3317;43.994;22.878;2022-12-20T14:32:55;19.20;;;10.87;;
6566;SDS011;3317;43.994;22.878;2022-12-20T14:35:22;30.60;;;17.03;;
6566;SDS011;3317;43.994;22.878;2022-12-20T14:37:54;20.80;;;11.60;;
6566;SDS011;3317;43.994;22.878;2022-12-20T14:40:22;28.57;;;13.70;;
6566;SDS011;3317;43.994;22.878;2022-12-20T14:42:50;38.67;;;18.70;;
6566;SDS011;3317;43.994;22.878;2022-12-20T14:45:18;28.13;;;14.50;;
6566;SDS011;3317;43.994;22.878;2022-12-20T14:47:48;28.10;;;13.80;;
6566;SDS011;3317;43.994;22.878;2022-12-20T14:50:21;26.43;;;13.27;;
6566;SDS011;3317;43.994;22.878;2022-12-20T14:52:52;30.60;;;16.00;;
6566;SDS011;3317;43.994;22.878;2022-12-20T14:55:20;27.93;;;13.77;;
6566;SDS011;3317;43.994;22.878;2022-12-20T14:57:51;28.47;;;15.37;;
6566;SDS011;3317;43.994;22.878;2022-12-20T15:00:20;42.97;;;16.53;;
6566;SDS011;3317;43.994;22.878;2022-12-20T15:02:49;29.70;;;13.83;;
6566;SDS011;3317;43.994;22.878;2022-12-20T15:08:21;30.10;;;15.87;;
6566;SDS011;3317;43.994;22.878;2022-12-20T15:10:55;25.60;;;13.60;;
6566;SDS011;3317;43.994;22.878;2022-12-20T15:13:29;29.63;;;13.60;;
6566;SDS011;3317;43.994;22.878;2022-12-20T15:16:01;30.83;;;15.60;;
6566;SDS011;3317;43.994;22.878;2022-12-20T15:18:30;27.00;;;14.00;;
6566;SDS011;3317;43.994;22.878;2022-12-20T15:21:00;26.37;;;13.00;;
6566;SDS011;3317;43.994;22.878;2022-12-20T15:23:30;24.77;;;12.30;;
6566;SDS011;3317;43.994;22.878;2022-12-20T15:25:58;20.80;;;10.63;;
6566;SDS011;3317;43.994;22.878;2022-12-20T15:28:25;27.70;;;13.23;;
6566;SDS011;3317;43.994;22.878;2022-12-20T15:30:52;29.73;;;14.33;;
6566;SDS011;3317;43.994;22.878;2022-12-20T15:33:20;27.70;;;14.87;;
6566;SDS011;3317;43.994;22.878;2022-12-20T15:35:49;35.80;;;14.73;;
6566;SDS011;3317;43.994;22.878;2022-12-20T15:38:19;26.03;;;13.00;;
6566;SDS011;3317;43.994;22.878;2022-12-20T15:40:49;21.53;;;11.53;;